Time;durP1;ratioP1;P1;durP2;ratioP2;P2;SDS_P1;SDS_P2;PMS_P1;PMS_P2;Temp;Humidity;BMP_temperature;BMP_pressure;BME280_temperature;BME280_humidity;BME280_pressure;Samples;Min_cycle;Max_cycle;Signal;HPM_P1;HPM_P2
2022/08/15 00:02:01;;;;;;;5.17;4.67;;;;;;;;;;5073342;28;20940;-75
2022/08/15 00:04:28;;;;;;;4.40;4.10;;;;;;;;;;5075150;28;20795;-75
2022/08/15 00:06:55;;;;;;;5.47;5.00;;;;;;;;;;5076207;28;20479;-76
2022/08/15 00:09:25;;;;;;;4.53;4.23;;;;;;;;;;5076379;28;20709;-76
2022/08/15 00:11:53;;;;;;;4.63;4.33;;;;;;;;;;5095579;28;20459;-75
2022/08/15 00:14:22;;;;;;;5.00;4.60;;;;;;;;;;5096452;28;21004;-76
2022/08/15 00:16:50;;;;;;;4.97;4.57;;;;;;;;;;5095381;28;20471;-75
2022/08/15 00:19:19;;;;;;;4.00;3.80;;;;;;;;;;5093851;28;20439;-75
2022/08/15 00:21:47;;;;;;;6.20;4.60;;;;;;;;;;5093366;28;20867;-76
2022/08/15 00:24:16;;;;;;;4.90;4.60;;;;;;;;;;5093308;28;20843;-76
2022/08/15 00:26:45;;;;;;;5.10;4.70;;;;;;;;;;5093357;28;20506;-75
2022/08/15 00:29:12;;;;;;;4.90;4.50;;;;;;;;;;5093312;28;20432;-75
2022/08/15 00:31:39;;;;;;;4.97;4.57;;;;;;;;;;5093121;28;20443;-76
2022/08/15 00:34:06;;;;;;;6.27;5.50;;;;;;;;;;5093375;28;20443;-74
2022/08/15 00:36:33;;;;;;;5.00;4.70;;;;;;;;;;5093300;28;20463;-76
2022/08/15 00:39:01;;;;;;;5.10;4.70;;;;;;;;;;5093626;28;20904;-75
2022/08/15 00:41:41;;;;;;;4.73;4.33;;;;;;;;;;5093114;28;20893;-75
2022/08/15 00:44:11;;;;;;;4.73;4.40;;;;;;;;;;5092474;28;20584;-75
2022/08/15 00:46:39;;;;;;;4.87;4.60;;;;;;;;;;5092583;28;20497;-75
2022/08/15 00:49:07;;;;;;;5.10;4.63;;;;;;;;;;5092740;28;20939;-75
2022/08/15 00:51:36;;;;;;;4.60;4.30;;;;;;;;;;5091901;28;20440;-76
2022/08/15 00:54:06;;;;;;;4.87;4.57;;;;;;;;;;5092659;28;20440;-75
2022/08/15 00:56:36;;;;;;;4.90;4.60;;;;;;;;;;5092265;28;20467;-75
2022/08/15 00:59:03;;;;;;;5.37;4.97;;;;;;;;;;5092506;28;20443;-76
2022/08/15 01:01:32;;;;;;;5.47;5.07;;;;;;;;;;5091694;28;20439;-75
2022/08/15 01:03:59;;;;;;;5.80;5.30;;;;;;;;;;5091348;28;20447;-75
2022/08/15 01:06:27;;;;;;;5.40;5.10;;;;;;;;;;5091067;28;20528;-75
2022/08/15 01:08:54;;;;;;;5.33;4.90;;;;;;;;;;5091372;28;20440;-74
2022/08/15 01:11:23;;;;;;;5.33;4.83;;;;;;;;;;5076649;28;20486;-76
2022/08/15 01:13:51;;;;;;;5.50;5.00;;;;;;;;;;5070950;28;20437;-76
2022/08/15 01:16:19;;;;;;;6.60;4.63;;;;;;;;;;5071034;28;20518;-75
2022/08/15 01:18:47;;;;;;;5.67;5.17;;;;;;;;;;5070733;28;20483;-75
2022/08/15 01:21:20;;;;;;;5.87;4.70;;;;;;;;;;5070561;28;20997;-76
2022/08/15 01:23:52;;;;;;;5.23;4.83;;;;;;;;;;5070414;28;20505;-75
2022/08/15 01:26:21;;;;;;;4.73;4.40;;;;;;;;;;5070792;28;20468;-76
2022/08/15 01:28:48;;;;;;;5.33;5.03;;;;;;;;;;5071513;28;20447;-75
2022/08/15 01:31:17;;;;;;;5.30;4.90;;;;;;;;;;5070624;28;20448;-76
2022/08/15 01:33:45;;;;;;;5.17;4.77;;;;;;;;;;5070448;28;20449;-75
2022/08/15 01:36:12;;;;;;;5.33;4.83;;;;;;;;;;5070258;28;20513;-75
2022/08/15 01:38:41;;;;;;;5.90;5.50;;;;;;;;;;5070448;28;20476;-76
2022/08/15 01:41:12;;;;;;;6.07;5.57;;;;;;;;;;5070603;28;20440;-75
2022/08/15 01:43:45;;;;;;;5.23;4.87;;;;;;;;;;5070495;28;20440;-76
2022/08/15 01:46:14;;;;;;;5.53;5.23;;;;;;;;;;5071145;28;20473;-75
2022/08/15 01:48:43;;;;;;;5.10;4.80;;;;;;;;;;5071016;28;20432;-75
2022/08/15 01:51:12;;;;;;;5.27;4.87;;;;;;;;;;5070370;28;20513;-75
2022/08/15 01:53:41;;;;;;;6.10;5.70;;;;;;;;;;5070540;28;20471;-75
2022/08/15 01:56:12;;;;;;;5.00;4.70;;;;;;;;;;5070970;28;20473;-76
2022/08/15 01:58:39;;;;;;;5.27;4.87;;;;;;;;;;5070510;28;20476;-75
2022/08/15 02:01:09;;;;;;;5.70;5.30;;;;;;;;;;5070426;28;20989;-75
2022/08/15 02:03:38;;;;;;;6.60;5.43;;;;;;;;;;5070164;28;20510;-76
2022/08/15 02:06:06;;;;;;;5.43;5.03;;;;;;;;;;5071398;28;20822;-75
2022/08/15 02:08:33;;;;;;;5.80;5.30;;;;;;;;;;5070453;28;20809;-75
2022/08/15 02:11:00;;;;;;;5.43;4.87;;;;;;;;;;5082598;28;20432;-76
2022/08/15 02:13:27;;;;;;;7.47;5.50;;;;;;;;;;5090438;28;20488;-75
2022/08/15 02:15:55;;;;;;;6.03;5.60;;;;;;;;;;5090648;28;20451;-76
2022/08/15 02:18:23;;;;;;;6.40;5.90;;;;;;;;;;5090461;28;20562;-76
2022/08/15 02:20:50;;;;;;;5.60;5.20;;;;;;;;;;5090570;28;20439;-75
2022/08/15 02:23:17;;;;;;;5.80;5.33;;;;;;;;;;5090761;28;20448;-76
2022/08/15 02:25:44;;;;;;;5.37;5.00;;;;;;;;;;5091081;28;20467;-75
2022/08/15 02:28:11;;;;;;;5.87;5.27;;;;;;;;;;5091083;28;20887;-76
2022/08/15 02:30:38;;;;;;;7.27;5.30;;;;;;;;;;5090573;28;20450;-75
2022/08/15 02:33:06;;;;;;;6.90;5.50;;;;;;;;;;5090862;28;21000;-76
2022/08/15 02:35:34;;;;;;;6.73;5.20;;;;;;;;;;5090979;28;20494;-76
2022/08/15 02:38:05;;;;;;;5.03;4.60;;;;;;;;;;5090765;28;20498;-75
2022/08/15 02:40:32;;;;;;;6.13;5.00;;;;;;;;;;5090411;28;20475;-75
2022/08/15 02:43:01;;;;;;;6.80;5.00;;;;;;;;;;5090933;28;20443;-75
2022/08/15 02:45:29;;;;;;;5.37;4.93;;;;;;;;;;5090311;28;20455;-75
2022/08/15 02:47:58;;;;;;;5.60;5.07;;;;;;;;;;5090816;28;20491;-75
2022/08/15 02:50:25;;;;;;;6.00;5.50;;;;;;;;;;5091205;28;20440;-75
2022/08/15 02:52:53;;;;;;;5.53;5.07;;;;;;;;;;5089870;28;20451;-76
2022/08/15 02:55:20;;;;;;;5.03;4.53;;;;;;;;;;5090108;28;20472;-75
2022/08/15 02:57:47;;;;;;;5.20;4.80;;;;;;;;;;5089691;28;20474;-76
2022/08/15 03:00:16;;;;;;;5.40;4.80;;;;;;;;;;5090267;28;20501;-75
2022/08/15 03:02:50;;;;;;;5.30;4.60;;;;;;;;;;5089980;28;20491;-75
2022/08/15 03:05:17;;;;;;;8.10;4.87;;;;;;;;;;5090317;28;20459;-74
2022/08/15 03:07:44;;;;;;;4.70;4.40;;;;;;;;;;5090153;28;20474;-77
2022/08/15 03:10:13;;;;;;;6.40;5.23;;;;;;;;;;5084667;28;20437;-75
2022/08/15 03:12:48;;;;;;;4.93;4.40;;;;;;;;;;5069660;28;20641;-75
2022/08/15 03:15:16;;;;;;;5.13;4.70;;;;;;;;;;5072109;28;20476;-75
2022/08/15 03:17:44;;;;;;;4.73;4.27;;;;;;;;;;5073462;28;20473;-74
2022/08/15 03:20:12;;;;;;;5.70;4.40;;;;;;;;;;5073801;28;20558;-76
2022/08/15 03:22:43;;;;;;;4.97;4.20;;;;;;;;;;5073392;28;20510;-75
2022/08/15 03:25:10;;;;;;;7.00;4.20;;;;;;;;;;5074491;28;20475;-75
2022/08/15 03:27:40;;;;;;;5.53;4.40;;;;;;;;;;5075361;28;20448;-75
2022/08/15 03:30:09;;;;;;;4.87;4.37;;;;;;;;;;5074251;28;20449;-76
2022/08/15 03:32:42;;;;;;;4.43;4.03;;;;;;;;;;5073598;28;20445;-75
2022/08/15 03:35:10;;;;;;;4.60;4.20;;;;;;;;;;5073482;28;20513;-76
2022/08/15 03:37:37;;;;;;;5.40;3.90;;;;;;;;;;5073631;28;20480;-76
2022/08/15 03:40:04;;;;;;;4.80;4.23;;;;;;;;;;5074839;28;20451;-76
2022/08/15 03:42:33;;;;;;;4.50;4.10;;;;;;;;;;5075097;28;20448;-76
2022/08/15 03:45:03;;;;;;;4.30;4.00;;;;;;;;;;5075032;28;20556;-75
2022/08/15 03:47:30;;;;;;;5.60;4.80;;;;;;;;;;5075374;28;20460;-76
2022/08/15 03:49:59;;;;;;;4.77;4.37;;;;;;;;;;5075296;28;20874;-75
2022/08/15 03:52:27;;;;;;;5.00;4.60;;;;;;;;;;5079047;28;20447;-75
2022/08/15 03:54:54;;;;;;;5.10;4.70;;;;;;;;;;5072715;28;20954;-75
2022/08/15 03:57:23;;;;;;;5.23;4.40;;;;;;;;;;5072555;28;20821;-75
2022/08/15 03:59:51;;;;;;;6.27;4.30;;;;;;;;;;5072309;28;20487;-75
2022/08/15 04:02:19;;;;;;;4.40;4.00;;;;;;;;;;5073431;28;20440;-75
2022/08/15 04:04:46;;;;;;;4.50;4.20;;;;;;;;;;5072855;28;20457;-74
2022/08/15 04:07:13;;;;;;;4.93;4.53;;;;;;;;;;5072683;28;20561;-76
2022/08/15 04:09:41;;;;;;;6.70;4.77;;;;;;;;;;5072430;28;20955;-76
2022/08/15 04:12:08;;;;;;;5.07;4.70;;;;;;;;;;5072777;28;20459;-75
2022/08/15 04:14:36;;;;;;;5.53;4.53;;;;;;;;;;5073654;28;20936;-76
2022/08/15 04:17:04;;;;;;;5.23;4.00;;;;;;;;;;5088712;28;20447;-76
2022/08/15 04:19:33;;;;;;;4.53;4.13;;;;;;;;;;5090960;28;21010;-75
2022/08/15 04:22:03;;;;;;;5.20;4.67;;;;;;;;;;5085090;28;20472;-76
2022/08/15 04:24:30;;;;;;;4.83;4.37;;;;;;;;;;5077481;28;20463;-76
2022/08/15 04:26:57;;;;;;;5.10;4.70;;;;;;;;;;5086475;28;20469;-75
2022/08/15 04:29:24;;;;;;;4.30;3.90;;;;;;;;;;5085645;28;20489;-77
2022/08/15 04:31:51;;;;;;;4.20;3.90;;;;;;;;;;5085956;28;20467;-76
2022/08/15 04:34:18;;;;;;;4.00;3.70;;;;;;;;;;5102328;28;20432;-76
2022/08/15 04:36:47;;;;;;;4.17;3.77;;;;;;;;;;5099828;28;20444;-77
2022/08/15 04:39:14;;;;;;;5.47;4.30;;;;;;;;;;5095931;28;20475;-77
2022/08/15 04:41:42;;;;;;;5.73;3.77;;;;;;;;;;5098935;28;20856;-76
2022/08/15 04:44:09;;;;;;;4.10;3.70;;;;;;;;;;5098831;28;20452;-76
2022/08/15 04:46:36;;;;;;;3.60;3.30;;;;;;;;;;5097603;28;20471;-76
2022/08/15 04:49:04;;;;;;;4.23;3.73;;;;;;;;;;5088205;28;20452;-76
2022/08/15 04:51:31;;;;;;;3.43;3.17;;;;;;;;;;5074092;28;20441;-76
2022/08/15 04:53:59;;;;;;;3.73;3.40;;;;;;;;;;5071226;28;20941;-77
2022/08/15 04:56:26;;;;;;;3.60;3.30;;;;;;;;;;5072419;28;20526;-76
2022/08/15 04:58:53;;;;;;;3.77;3.47;;;;;;;;;;5073600;28;20476;-77
2022/08/15 05:01:20;;;;;;;3.70;3.47;;;;;;;;;;5072702;28;20433;-75
2022/08/15 05:03:47;;;;;;;2.90;2.80;;;;;;;;;;5071218;28;20474;-76
2022/08/15 05:06:14;;;;;;;3.57;3.30;;;;;;;;;;5072001;28;20461;-77
2022/08/15 05:08:41;;;;;;;3.77;3.20;;;;;;;;;;5088802;28;20441;-75
2022/08/15 05:11:11;;;;;;;3.60;3.40;;;;;;;;;;5076012;28;20445;-76
2022/08/15 05:13:40;;;;;;;3.13;2.93;;;;;;;;;;5071566;28;20472;-76
2022/08/15 05:16:08;;;;;;;3.77;3.00;;;;;;;;;;5071091;28;20514;-75
2022/08/15 05:18:36;;;;;;;3.43;3.13;;;;;;;;;;5071145;28;20530;-76
2022/08/15 05:21:03;;;;;;;3.33;3.10;;;;;;;;;;5071325;28;20440;-76
2022/08/15 05:23:30;;;;;;;3.33;3.03;;;;;;;;;;5070784;28;20440;-75
2022/08/15 05:25:59;;;;;;;3.03;2.83;;;;;;;;;;5071344;28;20545;-76
2022/08/15 05:28:27;;;;;;;3.60;3.40;;;;;;;;;;5070771;28;20440;-76
2022/08/15 05:30:55;;;;;;;5.10;3.20;;;;;;;;;;5070785;28;20471;-76
2022/08/15 05:33:23;;;;;;;3.43;3.23;;;;;;;;;;5070697;28;20971;-76
2022/08/15 05:35:53;;;;;;;3.30;3.10;;;;;;;;;;5071425;28;20475;-77
2022/08/15 05:38:22;;;;;;;3.50;3.20;;;;;;;;;;5070712;28;20441;-76
2022/08/15 05:40:53;;;;;;;3.60;2.90;;;;;;;;;;5070890;28;20985;-77
2022/08/15 05:43:26;;;;;;;3.30;3.10;;;;;;;;;;5070818;28;20452;-77
2022/08/15 05:46:00;;;;;;;3.20;3.00;;;;;;;;;;5070824;28;20472;-76
2022/08/15 05:48:30;;;;;;;3.90;3.50;;;;;;;;;;5071277;28;20432;-77
2022/08/15 05:51:02;;;;;;;3.20;3.00;;;;;;;;;;5071293;28;20448;-76
2022/08/15 05:53:31;;;;;;;3.50;3.20;;;;;;;;;;5071562;28;20459;-78
2022/08/15 05:56:02;;;;;;;3.50;3.13;;;;;;;;;;5087635;28;20469;-76
2022/08/15 05:58:36;;;;;;;3.63;2.97;;;;;;;;;;5091067;28;20471;-78
2022/08/15 06:01:07;;;;;;;3.30;3.10;;;;;;;;;;5090854;28;20443;-77
2022/08/15 06:03:36;;;;;;;3.73;3.20;;;;;;;;;;5091620;28;20444;-76
2022/08/15 06:06:06;;;;;;;3.23;3.03;;;;;;;;;;5091770;28;20459;-77
2022/08/15 06:08:36;;;;;;;5.40;2.80;;;;;;;;;;5090872;28;20436;-78
2022/08/15 06:11:08;;;;;;;2.90;2.70;;;;;;;;;;5090825;28;20436;-77
2022/08/15 06:13:37;;;;;;;3.63;3.20;;;;;;;;;;5090957;28;20432;-77
2022/08/15 06:16:08;;;;;;;2.80;2.60;;;;;;;;;;5090663;28;20493;-76
2022/08/15 06:18:36;;;;;;;3.37;2.77;;;;;;;;;;5090787;28;20447;-77
2022/08/15 06:21:07;;;;;;;3.60;3.30;;;;;;;;;;5090587;28;20443;-76
2022/08/15 06:23:38;;;;;;;3.27;2.97;;;;;;;;;;5090898;28;20859;-77
2022/08/15 06:26:11;;;;;;;3.73;3.23;;;;;;;;;;5090635;28;20468;-77
2022/08/15 06:28:45;;;;;;;3.20;3.00;;;;;;;;;;5090964;28;20489;-76
2022/08/15 06:31:17;;;;;;;3.20;3.00;;;;;;;;;;5091595;28;20834;-78
2022/08/15 06:33:46;;;;;;;4.23;3.83;;;;;;;;;;5091706;28;20523;-77
2022/08/15 06:36:16;;;;;;;5.07;3.43;;;;;;;;;;5091476;28;20963;-77
2022/08/15 06:38:48;;;;;;;5.00;3.30;;;;;;;;;;5090872;28;20471;-77
2022/08/15 06:41:18;;;;;;;3.23;3.03;;;;;;;;;;5090496;28;20549;-76
2022/08/15 06:43:48;;;;;;;3.00;2.80;;;;;;;;;;5090057;28;20448;-77
2022/08/15 06:46:17;;;;;;;5.10;3.40;;;;;;;;;;5090550;28;20558;-76
2022/08/15 06:48:44;;;;;;;3.00;2.80;;;;;;;;;;5090220;28;20526;-76
2022/08/15 06:51:12;;;;;;;3.37;3.07;;;;;;;;;;5093698;28;20818;-75
2022/08/15 06:53:44;;;;;;;3.03;2.83;;;;;;;;;;5093680;28;20505;-75
2022/08/15 06:56:13;;;;;;;3.73;3.43;;;;;;;;;;5093538;28;20598;-76
2022/08/15 06:58:43;;;;;;;5.30;2.83;;;;;;;;;;5093451;28;20450;-76
2022/08/15 07:01:13;;;;;;;2.93;2.63;;;;;;;;;;5094199;28;20447;-76
2022/08/15 07:03:48;;;;;;;3.50;3.20;;;;;;;;;;5093190;28;20443;-76
2022/08/15 07:06:19;;;;;;;4.03;3.73;;;;;;;;;;5093797;28;20463;-76
2022/08/15 07:08:52;;;;;;;3.37;3.03;;;;;;;;;;5093699;28;20831;-76
2022/08/15 07:11:22;;;;;;;3.67;3.37;;;;;;;;;;5078759;28;20502;-76
2022/08/15 07:13:56;;;;;;;3.80;3.50;;;;;;;;;;5073406;28;20531;-76
2022/08/15 07:16:27;;;;;;;4.70;3.20;;;;;;;;;;5073491;28;20464;-76
2022/08/15 07:18:58;;;;;;;3.10;2.90;;;;;;;;;;5074089;28;20499;-76
2022/08/15 07:21:25;;;;;;;3.07;2.87;;;;;;;;;;5073717;28;20444;-76
2022/08/15 07:24:02;;;;;;;3.23;2.93;;;;;;;;;;5073606;28;20495;-76
2022/08/15 07:26:30;;;;;;;4.40;2.70;;;;;;;;;;5073298;28;20463;-76
2022/08/15 07:28:59;;;;;;;2.83;2.63;;;;;;;;;;5073582;28;20502;-76
2022/08/15 07:31:29;;;;;;;3.40;2.43;;;;;;;;;;5073627;28;20436;-76
2022/08/15 07:34:04;;;;;;;3.13;2.87;;;;;;;;;;5072880;28;20444;-76
2022/08/15 07:36:33;;;;;;;3.10;2.90;;;;;;;;;;5073321;28;20926;-76
2022/08/15 07:39:00;;;;;;;2.70;2.50;;;;;;;;;;5074836;28;20541;-76
2022/08/15 07:41:29;;;;;;;2.90;2.70;;;;;;;;;;5087412;28;20445;-76
2022/08/15 07:43:59;;;;;;;2.80;2.60;;;;;;;;;;5087559;28;20448;-76
2022/08/15 07:46:36;;;;;;;2.90;2.70;;;;;;;;;;5087655;28;20483;-77
2022/08/15 07:49:07;;;;;;;3.20;2.90;;;;;;;;;;5087549;28;20441;-76
2022/08/15 07:51:40;;;;;;;3.63;2.60;;;;;;;;;;5079237;28;20456;-75
2022/08/15 07:54:22;;;;;;;3.63;2.80;;;;;;;;;;5094223;28;20607;-77
2022/08/15 07:56:51;;;;;;;2.73;2.53;;;;;;;;;;5096356;28;20429;-76
2022/08/15 07:59:20;;;;;;;2.90;2.70;;;;;;;;;;5086417;28;20881;-76
2022/08/15 08:01:48;;;;;;;2.50;2.40;;;;;;;;;;5089893;28;20475;-77
2022/08/15 08:04:19;;;;;;;2.40;2.30;;;;;;;;;;5084487;28;20437;-76
2022/08/15 08:06:49;;;;;;;2.37;2.27;;;;;;;;;;5074956;28;20528;-76
2022/08/15 08:09:20;;;;;;;2.60;2.40;;;;;;;;;;5073269;28;20526;-76
2022/08/15 08:11:52;;;;;;;3.33;3.03;;;;;;;;;;5094335;28;20936;-75
2022/08/15 08:14:24;;;;;;;2.60;2.50;;;;;;;;;;5097926;28;20448;-76
2022/08/15 08:16:54;;;;;;;2.33;2.13;;;;;;;;;;5099499;28;20452;-77
2022/08/15 08:19:26;;;;;;;2.43;2.23;;;;;;;;;;5100656;28;21016;-76
2022/08/15 08:21:56;;;;;;;2.40;2.30;;;;;;;;;;5097697;28;20947;-76
2022/08/15 08:24:28;;;;;;;3.00;2.37;;;;;;;;;;5097128;28;20967;-76
2022/08/15 08:27:01;;;;;;;3.53;2.40;;;;;;;;;;5094675;28;20516;-76
2022/08/15 08:29:33;;;;;;;2.60;2.40;;;;;;;;;;5092430;28;20447;-76
2022/08/15 08:32:03;;;;;;;2.63;2.43;;;;;;;;;;5092187;28;20519;-76
2022/08/15 08:34:35;;;;;;;2.60;2.37;;;;;;;;;;5091983;28;21106;-75
2022/08/15 08:37:07;;;;;;;2.63;2.43;;;;;;;;;;5092323;28;20497;-76
2022/08/15 08:39:38;;;;;;;2.60;2.40;;;;;;;;;;5092472;28;20570;-76
2022/08/15 08:42:11;;;;;;;2.60;2.47;;;;;;;;;;5092388;28;20924;-77
2022/08/15 08:44:43;;;;;;;2.40;2.20;;;;;;;;;;5092048;28;20452;-76
2022/08/15 08:47:28;;;;;;;2.80;2.17;;;;;;;;;;5092119;28;20512;-76
2022/08/15 08:50:03;;;;;;;2.57;2.37;;;;;;;;;;5092693;28;20431;-76
2022/08/15 08:52:35;;;;;;;2.90;2.30;;;;;;;;;;5092551;28;20448;-77
2022/08/15 08:55:05;;;;;;;2.33;2.20;;;;;;;;;;5091813;28;20512;-76
2022/08/15 08:57:36;;;;;;;2.43;2.23;;;;;;;;;;5092264;28;20915;-76
2022/08/15 09:00:07;;;;;;;2.20;2.10;;;;;;;;;;5092111;28;20478;-76
2022/08/15 09:02:37;;;;;;;2.40;2.30;;;;;;;;;;5091271;28;20452;-75
2022/08/15 09:05:09;;;;;;;2.33;2.23;;;;;;;;;;5091233;28;20459;-76
2022/08/15 09:07:38;;;;;;;2.23;2.13;;;;;;;;;;5091478;28;20462;-76
2022/08/15 09:10:07;;;;;;;2.10;2.00;;;;;;;;;;5088366;28;20998;-77
2022/08/15 09:15:25;;;;;;;3.20;3.00;;;;;;;;;;5071055;28;20966;-76
2022/08/15 09:17:54;;;;;;;3.10;2.90;;;;;;;;;;5071654;28;20490;-77
2022/08/15 09:20:26;;;;;;;5.90;2.27;;;;;;;;;;5071164;28;21007;-76
2022/08/15 09:22:53;;;;;;;2.53;2.43;;;;;;;;;;5071253;28;20590;-76
2022/08/15 09:25:20;;;;;;;2.70;2.50;;;;;;;;;;5071298;28;20453;-77
2022/08/15 09:27:49;;;;;;;3.07;2.87;;;;;;;;;;5071488;28;20539;-75
2022/08/15 09:30:16;;;;;;;2.97;2.77;;;;;;;;;;5072032;28;20441;-76
2022/08/15 09:32:49;;;;;;;3.30;3.00;;;;;;;;;;5073168;28;20449;-77
2022/08/15 09:35:23;;;;;;;2.80;2.60;;;;;;;;;;5072716;28;20975;-76
2022/08/15 09:38:02;;;;;;;3.03;2.83;;;;;;;;;;5071847;28;20456;-76
2022/08/15 09:40:34;;;;;;;2.87;2.77;;;;;;;;;;5071399;28;20484;-76
2022/08/15 09:43:10;;;;;;;3.93;2.77;;;;;;;;;;5071073;28;20449;-76
2022/08/15 09:45:45;;;;;;;2.27;2.17;;;;;;;;;;5071835;28;20571;-78
2022/08/15 09:48:27;;;;;;;2.50;2.30;;;;;;;;;;5071777;28;20863;-76
2022/08/15 09:51:00;;;;;;;2.57;2.47;;;;;;;;;;5079506;28;20474;-76
2022/08/15 09:53:33;;;;;;;2.60;2.50;;;;;;;;;;5091101;28;20565;-77
2022/08/15 09:56:03;;;;;;;2.70;2.50;;;;;;;;;;5091372;28;20460;-76
2022/08/15 09:58:31;;;;;;;2.80;2.53;;;;;;;;;;5091539;28;20444;-77
2022/08/15 10:01:05;;;;;;;3.10;2.80;;;;;;;;;;5090921;28;20483;-77
2022/08/15 10:03:51;;;;;;;2.40;2.30;;;;;;;;;;5090697;28;20799;-77
2022/08/15 10:06:20;;;;;;;2.40;2.30;;;;;;;;;;5091003;28;20570;-76
2022/08/15 10:09:02;;;;;;;2.77;2.57;;;;;;;;;;5091167;28;20443;-77
2022/08/15 10:11:32;;;;;;;2.87;2.77;;;;;;;;;;5088823;28;20444;-78
2022/08/15 10:14:02;;;;;;;2.70;2.50;;;;;;;;;;5090408;28;20447;-78
2022/08/15 10:16:50;;;;;;;2.70;2.50;;;;;;;;;;5090798;28;20470;-76
2022/08/15 10:19:29;;;;;;;7.40;2.70;;;;;;;;;;5090161;28;20454;-77
2022/08/15 10:21:58;;;;;;;2.93;2.73;;;;;;;;;;5091067;28;20839;-77
2022/08/15 10:24:28;;;;;;;2.77;2.57;;;;;;;;;;5093428;28;20550;-77
2022/08/15 10:27:09;;;;;;;2.57;2.40;;;;;;;;;;5095368;28;20460;-75
2022/08/15 10:29:37;;;;;;;3.00;2.70;;;;;;;;;;5094759;28;20853;-77
2022/08/15 10:32:04;;;;;;;3.13;2.93;;;;;;;;;;5094203;28;20444;-79
2022/08/15 10:34:37;;;;;;;3.30;3.10;;;;;;;;;;5094127;28;20452;-76
2022/08/15 10:37:20;;;;;;;3.47;3.13;;;;;;;;;;5094619;28;20458;-77
2022/08/15 10:40:22;;;;;;;;;;;;;;;;;;;;;
2022/08/15 10:42:57;;;;;;;2.60;2.40;;;;;;;;;;5095825;28;20431;-78
2022/08/15 10:45:28;;;;;;;2.70;2.50;;;;;;;;;;5095099;28;20572;-77
2022/08/15 10:48:00;;;;;;;2.70;2.50;;;;;;;;;;5094803;28;20518;-76
2022/08/15 10:50:30;;;;;;;2.30;2.20;;;;;;;;;;5094327;28;20504;-76
2022/08/15 10:53:08;;;;;;;2.70;2.50;;;;;;;;;;5093719;28;20485;-77
2022/08/15 10:55:36;;;;;;;3.90;2.47;;;;;;;;;;5094235;28;20467;-77
2022/08/15 10:58:14;;;;;;;2.73;2.60;;;;;;;;;;5094117;28;20431;-77
2022/08/15 11:00:44;;;;;;;2.70;2.50;;;;;;;;;;5094205;28;20885;-76
2022/08/15 11:03:16;;;;;;;2.97;2.33;;;;;;;;;;5093716;28;20516;-76
2022/08/15 11:05:43;;;;;;;2.63;2.43;;;;;;;;;;5094225;28;20798;-77
2022/08/15 11:08:13;;;;;;;2.80;2.00;;;;;;;;;;5093912;28;20543;-76
2022/08/15 11:10:41;;;;;;;2.30;2.00;;;;;;;;;;5093650;28;20444;-77
2022/08/15 11:13:11;;;;;;;2.70;2.50;;;;;;;;;;5093329;28;20447;-76
2022/08/15 11:15:47;;;;;;;2.57;2.40;;;;;;;;;;5093855;28;20467;-77
2022/08/15 11:18:20;;;;;;;2.80;2.70;;;;;;;;;;5094111;28;20458;-77
2022/08/15 11:20:52;;;;;;;2.10;2.00;;;;;;;;;;5096590;28;20475;-76
2022/08/15 11:23:31;;;;;;;2.03;1.93;;;;;;;;;;5097622;28;20466;-76
2022/08/15 11:25:58;;;;;;;2.60;2.43;;;;;;;;;;5094110;28;20463;-76
2022/08/15 11:28:29;;;;;;;2.13;2.00;;;;;;;;;;5093691;28;20436;-75
2022/08/15 11:30:59;;;;;;;2.30;2.17;;;;;;;;;;5093611;28;20489;-76
2022/08/15 11:33:27;;;;;;;2.20;2.10;;;;;;;;;;5093409;28;20447;-76
2022/08/15 11:36:04;;;;;;;2.23;2.07;;;;;;;;;;5093055;28;20475;-77
2022/08/15 11:38:32;;;;;;;2.20;2.10;;;;;;;;;;5083056;28;20460;-76
2022/08/15 11:41:00;;;;;;;2.10;2.00;;;;;;;;;;5088031;28;20594;-76
2022/08/15 11:43:28;;;;;;;3.90;2.07;;;;;;;;;;5092786;28;20438;-75
2022/08/15 11:45:56;;;;;;;6.03;2.10;;;;;;;;;;5093292;28;20467;-76
2022/08/15 11:48:27;;;;;;;2.27;2.17;;;;;;;;;;5093448;28;20543;-76
2022/08/15 11:50:58;;;;;;;2.50;2.40;;;;;;;;;;5093627;28;20428;-76
2022/08/15 11:53:29;;;;;;;2.63;2.53;;;;;;;;;;5092398;28;21183;-76
2022/08/15 11:55:56;;;;;;;2.30;2.20;;;;;;;;;;5093277;28;20616;-78
2022/08/15 11:58:30;;;;;;;2.40;2.20;;;;;;;;;;5093190;28;20447;-76
2022/08/15 12:00:59;;;;;;;2.60;2.40;;;;;;;;;;5092790;28;20475;-77
2022/08/15 12:03:30;;;;;;;2.50;2.30;;;;;;;;;;5092701;28;20479;-77
2022/08/15 12:05:59;;;;;;;2.63;2.30;;;;;;;;;;5092716;28;20542;-76
2022/08/15 12:08:28;;;;;;;2.50;2.40;;;;;;;;;;5093086;28;20451;-75
2022/08/15 12:11:02;;;;;;;2.00;1.90;;;;;;;;;;5092997;28;20436;-75
2022/08/15 12:13:29;;;;;;;2.00;1.90;;;;;;;;;;5093060;28;20450;-75
2022/08/15 12:15:56;;;;;;;3.07;2.67;;;;;;;;;;5092890;28;20469;-77
2022/08/15 12:18:34;;;;;;;2.30;2.20;;;;;;;;;;5093069;28;20460;-76
2022/08/15 12:21:06;;;;;;;2.27;2.17;;;;;;;;;;5090017;28;20541;-77
2022/08/15 12:23:36;;;;;;;2.67;2.43;;;;;;;;;;5081043;28;20418;-76
2022/08/15 12:26:04;;;;;;;5.80;2.83;;;;;;;;;;5072526;28;20484;-77
2022/08/15 12:28:32;;;;;;;2.50;2.30;;;;;;;;;;5072388;28;20449;-76
2022/08/15 12:31:00;;;;;;;1.73;1.70;;;;;;;;;;5072052;28;20448;-76
2022/08/15 12:33:27;;;;;;;1.93;1.70;;;;;;;;;;5072353;28;20440;-77
2022/08/15 12:35:56;;;;;;;2.10;1.90;;;;;;;;;;5072115;28;20465;-77
2022/08/15 12:38:23;;;;;;;2.63;2.43;;;;;;;;;;5072240;28;20440;-76
2022/08/15 12:40:50;;;;;;;2.70;2.50;;;;;;;;;;5073305;28;20481;-76
2022/08/15 12:43:18;;;;;;;3.33;2.63;;;;;;;;;;5077418;28;20455;-76
2022/08/15 12:45:45;;;;;;;3.20;2.90;;;;;;;;;;5084054;28;20464;-76
2022/08/15 12:48:22;;;;;;;2.50;2.40;;;;;;;;;;5071086;28;20436;-76
2022/08/15 12:50:49;;;;;;;2.47;2.27;;;;;;;;;;5071963;28;20444;-76
2022/08/15 12:53:17;;;;;;;2.70;2.10;;;;;;;;;;5072005;28;20543;-77
2022/08/15 12:55:47;;;;;;;2.43;2.23;;;;;;;;;;5071412;28;21032;-77
2022/08/15 12:58:15;;;;;;;2.77;2.57;;;;;;;;;;5071816;28;20444;-76
2022/08/15 13:00:42;;;;;;;2.63;2.43;;;;;;;;;;5072020;28;20558;-77
2022/08/15 13:03:10;;;;;;;2.70;2.50;;;;;;;;;;5072009;28;20444;-77
2022/08/15 13:05:37;;;;;;;2.40;2.30;;;;;;;;;;5071936;28;20467;-77
2022/08/15 13:08:05;;;;;;;2.70;2.50;;;;;;;;;;5071784;28;20453;-77
2022/08/15 13:10:33;;;;;;;3.60;2.30;;;;;;;;;;5079711;28;20535;-76
2022/08/15 13:13:00;;;;;;;2.43;2.23;;;;;;;;;;5092540;28;20497;-77
2022/08/15 13:15:27;;;;;;;3.80;2.67;;;;;;;;;;5091895;28;20520;-77
2022/08/15 13:17:55;;;;;;;3.00;2.80;;;;;;;;;;5091920;28;20700;-76
2022/08/15 13:25:55;;;;;;;2.80;2.60;;;;;;;;;;5083841;28;20456;-76
2022/08/15 13:28:22;;;;;;;4.30;2.60;;;;;;;;;;5080820;28;20467;-76
2022/08/15 13:30:51;;;;;;;2.70;2.60;;;;;;;;;;5091443;28;20465;-76
2022/08/15 13:33:18;;;;;;;3.40;3.10;;;;;;;;;;5090957;28;20440;-77
2022/08/15 13:35:45;;;;;;;3.83;3.47;;;;;;;;;;5091690;28;20462;-77
2022/08/15 13:38:13;;;;;;;3.23;2.93;;;;;;;;;;5093139;28;20512;-78
2022/08/15 13:40:40;;;;;;;4.53;3.23;;;;;;;;;;5089302;28;20481;-77
2022/08/15 13:43:09;;;;;;;4.20;2.93;;;;;;;;;;5084640;28;20857;-77
2022/08/15 13:45:38;;;;;;;3.13;2.93;;;;;;;;;;5084770;28;20522;-76
2022/08/15 13:48:07;;;;;;;2.80;2.60;;;;;;;;;;5091317;28;20440;-76
2022/08/15 13:50:35;;;;;;;2.97;2.70;;;;;;;;;;5091946;28;20447;-75
2022/08/15 13:53:02;;;;;;;2.83;2.63;;;;;;;;;;5086819;28;20680;-76
2022/08/15 13:55:29;;;;;;;3.27;2.97;;;;;;;;;;5074576;28;20460;-75
2022/08/15 13:57:56;;;;;;;3.60;3.10;;;;;;;;;;5089115;28;20514;-76
2022/08/15 14:00:26;;;;;;;2.93;2.73;;;;;;;;;;5093157;28;20501;-76
2022/08/15 14:02:53;;;;;;;3.30;2.90;;;;;;;;;;5092247;28;20483;-75
2022/08/15 14:05:20;;;;;;;2.90;2.70;;;;;;;;;;5090524;28;20467;-76
2022/08/15 14:07:48;;;;;;;3.30;3.00;;;;;;;;;;5091909;28;20516;-76
2022/08/15 14:10:16;;;;;;;3.03;2.83;;;;;;;;;;5086384;28;20824;-77
2022/08/15 14:12:44;;;;;;;3.70;3.40;;;;;;;;;;5071778;28;20488;-80
2022/08/15 14:15:13;;;;;;;3.30;3.00;;;;;;;;;;5072158;28;20691;-75
2022/08/15 14:17:43;;;;;;;2.73;2.53;;;;;;;;;;5072363;28;20455;-76
2022/08/15 14:20:10;;;;;;;2.70;2.50;;;;;;;;;;5072748;28;20480;-77
2022/08/15 14:22:37;;;;;;;2.73;2.50;;;;;;;;;;5071834;28;20476;-77
2022/08/15 14:25:05;;;;;;;3.13;2.90;;;;;;;;;;5072344;28;20514;-77
2022/08/15 14:27:32;;;;;;;3.57;3.23;;;;;;;;;;5075215;28;20963;-75
2022/08/15 14:29:59;;;;;;;3.10;2.80;;;;;;;;;;5075714;28;20471;-77
2022/08/15 14:32:26;;;;;;;5.70;3.57;;;;;;;;;;5074881;28;20451;-76
2022/08/15 14:34:54;;;;;;;7.13;4.00;;;;;;;;;;5074164;28;20468;-77
2022/08/15 14:37:22;;;;;;;3.63;3.40;;;;;;;;;;5078049;28;20445;-77
2022/08/15 14:39:49;;;;;;;3.67;3.27;;;;;;;;;;5077365;28;20456;-78
2022/08/15 14:42:17;;;;;;;3.50;3.20;;;;;;;;;;5073881;28;20481;-78
2022/08/15 14:44:44;;;;;;;4.20;3.70;;;;;;;;;;5074363;28;20449;-76
2022/08/15 14:47:12;;;;;;;5.93;3.60;;;;;;;;;;5074241;28;20502;-76
2022/08/15 14:49:39;;;;;;;3.50;3.20;;;;;;;;;;5073161;28;21031;-77
2022/08/15 14:52:08;;;;;;;4.17;3.80;;;;;;;;;;5077581;28;20436;-75
2022/08/15 14:54:37;;;;;;;4.13;3.83;;;;;;;;;;5080319;28;20950;-74
2022/08/15 14:57:04;;;;;;;4.00;3.33;;;;;;;;;;5082418;28;20448;-75
2022/08/15 14:59:31;;;;;;;4.30;3.67;;;;;;;;;;5080808;28;20441;-75
2022/08/15 15:01:58;;;;;;;6.93;3.43;;;;;;;;;;5072419;28;20538;-75
2022/08/15 15:04:26;;;;;;;3.37;3.13;;;;;;;;;;5076494;28;20433;-75
2022/08/15 15:06:53;;;;;;;4.13;2.97;;;;;;;;;;5071545;28;20808;-77